Time;durP1;ratioP1;P1;durP2;ratioP2;P2;SDS_P1;SDS_P2;PMS_P1;PMS_P2;Temp;Humidity;BMP_temperature;BMP_pressure;BME280_temperature;BME280_humidity;BME280_pressure;Samples;Min_cycle;Max_cycle;Signal;HPM_P1;HPM_P2
2023/07/17 00:00:15;;;;;;;0.80;0.80;;;;;;;21.89;73.28;97298.44;5046935;28;20052;-70
2023/07/17 00:02:43;;;;;;;1.00;1.00;;;;;;;21.72;72.98;97267.84;5046777;28;20107;-70
2023/07/17 00:05:10;;;;;;;0.90;0.90;;;;;;;21.73;73.37;97308.91;5061722;28;20064;-70
2023/07/17 00:07:41;;;;;;;0.85;0.85;;;;;;;20.36;74.39;97103.38;5046784;28;20140;-71
2023/07/17 00:10:11;;;;;;;1.00;1.00;;;;;;;21.59;74.10;97293.06;5046566;28;20056;-72
2023/07/17 00:12:38;;;;;;;0.90;0.90;;;;;;;21.40;74.43;97277.00;5046813;28;20052;-71
2023/07/17 00:15:05;;;;;;;0.80;0.80;;;;;;;21.63;74.58;97302.25;5046529;28;20530;-72
2023/07/17 00:17:36;;;;;;;1.00;1.00;;;;;;;21.62;74.65;97299.88;5045144;28;20431;-71
2023/07/17 00:20:22;;;;;;;0.90;0.90;;;;;;;21.42;74.68;97276.56;5046691;28;20061;-70
2023/07/17 00:22:48;;;;;;;0.80;0.80;;;;;;;21.35;74.50;97265.44;5047284;28;20045;-72
2023/07/17 00:25:15;;;;;;;1.00;1.00;;;;;;;21.38;74.81;97284.28;5046605;28;20045;-72
2023/07/17 00:27:42;;;;;;;0.90;0.90;;;;;;;21.22;74.33;97248.41;5045056;28;20044;-71
2023/07/17 00:30:09;;;;;;;1.00;1.00;;;;;;;21.65;74.02;97297.00;5046713;28;20450;-72
2023/07/17 00:32:35;;;;;;;0.90;0.90;;;;;;;21.41;73.96;97275.78;5046806;28;20053;-70
2023/07/17 00:35:02;;;;;;;0.93;0.93;;;;;;;21.50;74.41;97295.69;5046431;28;20443;-71
2023/07/17 00:37:29;;;;;;;0.90;0.90;;;;;;;21.53;74.47;97297.63;5046338;28;20152;-72
2023/07/17 00:39:56;;;;;;;0.98;0.98;;;;;;;21.17;74.42;97243.28;5037038;28;20140;-70
2023/07/17 00:42:23;;;;;;;0.90;0.90;;;;;;;21.35;74.64;97266.25;5046447;28;20160;-70
2023/07/17 00:44:49;;;;;;;0.90;0.90;;;;;;;21.10;74.22;97232.16;5064407;28;20054;-71
2023/07/17 00:47:17;;;;;;;0.80;0.80;;;;;;;21.45;73.84;97284.94;5065702;28;20104;-71
2023/07/17 00:49:45;;;;;;;0.90;0.90;;;;;;;21.03;74.12;97221.03;5066191;28;20052;-71
2023/07/17 00:52:12;;;;;;;0.98;0.98;;;;;;;21.52;73.46;97281.16;5066375;28;20143;-72
2023/07/17 00:54:41;;;;;;;0.80;0.80;;;;;;;21.22;73.53;97239.94;5066619;28;20044;-69
2023/07/17 00:57:11;;;;;;;0.90;0.90;;;;;;;21.58;73.79;97297.13;5066546;28;20071;-70
2023/07/17 00:59:39;;;;;;;1.00;1.00;;;;;;;21.51;73.06;97273.94;5064406;28;20041;-70
2023/07/17 01:02:05;;;;;;;1.00;1.00;;;;;;;19.93;73.07;97023.84;5064459;28;20048;-70
2023/07/17 01:04:32;;;;;;;0.95;0.95;;;;;;;21.56;73.05;97287.53;5065549;28;20131;-69
2023/07/17 01:06:59;;;;;;;1.00;1.00;;;;;;;21.10;73.51;97243.44;5065725;28;20136;-70
2023/07/17 01:09:25;;;;;;;1.00;1.00;;;;;;;21.36;73.58;97290.38;5065960;28;20052;-71
2023/07/17 01:11:52;;;;;;;0.80;0.80;;;;;;;21.10;73.56;97243.44;5065947;28;20057;-71
2023/07/17 01:14:19;;;;;;;0.90;0.90;;;;;;;21.24;74.01;97293.84;5065698;28;20499;-71
2023/07/17 01:16:48;;;;;;;0.90;0.90;;;;;;;21.26;73.97;97291.38;5065627;28;20080;-71
2023/07/17 01:19:15;;;;;;;0.95;0.95;;;;;;;21.08;73.71;97245.88;5065363;28;20094;-70
2023/07/17 01:22:21;;;;;;;0.90;0.90;;;;;;;21.27;73.89;97293.00;5063882;28;20583;-70
2023/07/17 01:24:48;;;;;;;0.90;0.90;;;;;;;20.96;75.01;97277.50;5059307;28;20048;-71
2023/07/17 01:27:16;;;;;;;0.88;0.88;;;;;;;21.03;74.96;97285.84;5065354;28;20855;-71
2023/07/17 01:29:43;;;;;;;0.80;0.80;;;;;;;21.12;74.67;97296.53;5050071;28;20057;-70
2023/07/17 01:32:10;;;;;;;0.95;0.95;;;;;;;20.76;74.63;97245.72;5056479;28;20053;-70
2023/07/17 01:34:38;;;;;;;0.88;0.88;;;;;;;20.88;74.43;97245.06;5056022;28;20052;-69
2023/07/17 01:37:05;;;;;;;0.90;0.90;;;;;;;21.09;73.70;97267.19;5065031;28;20050;-70
2023/07/17 01:39:32;;;;;;;0.80;0.80;;;;;;;21.02;73.46;97247.63;5064913;28;20045;-72
2023/07/17 01:41:59;;;;;;;0.93;0.93;;;;;;;21.13;73.90;97287.66;5065097;28;20436;-70
2023/07/17 01:44:28;;;;;;;1.00;1.00;;;;;;;21.06;74.12;97279.31;5064898;28;20072;-71
2023/07/17 01:46:55;;;;;;;0.80;0.80;;;;;;;20.10;74.86;97152.06;5065322;28;20524;-71
2023/07/17 01:49:22;;;;;;;0.90;0.90;;;;;;;20.94;75.15;97285.59;5063643;28;20114;-70
2023/07/17 01:51:48;;;;;;;0.80;0.80;;;;;;;20.46;76.14;97234.63;5065203;28;20048;-72
2023/07/17 01:54:15;;;;;;;0.88;0.88;;;;;;;20.52;76.18;97246.97;5063316;28;20063;-71
2023/07/17 01:56:42;;;;;;;1.00;1.00;;;;;;;20.65;76.33;97273.28;5064770;28;20049;-69
2023/07/17 01:59:08;;;;;;;0.88;0.88;;;;;;;20.64;76.95;97266.06;5064464;28;20545;-70
2023/07/17 02:01:35;;;;;;;0.90;0.90;;;;;;;20.85;76.24;97293.78;5062560;28;20499;-69
2023/07/17 02:04:02;;;;;;;0.90;0.90;;;;;;;20.77;77.36;97286.72;5064095;28;20118;-70
2023/07/17 02:06:29;;;;;;;0.90;0.90;;;;;;;20.70;78.32;97298.13;5063008;28;20554;-71
2023/07/17 02:08:56;;;;;;;0.85;0.85;;;;;;;20.69;78.72;97302.94;5063317;28;20055;-70
2023/07/17 02:11:26;;;;;;;0.80;0.80;;;;;;;20.54;78.23;97255.78;5064540;28;20726;-69
2023/07/17 02:13:54;;;;;;;0.80;0.80;;;;;;;20.57;77.85;97243.66;5064336;28;20571;-69
2023/07/17 02:16:20;;;;;;;0.90;0.90;;;;;;;20.91;78.21;97297.72;5064217;28;20064;-67
2023/07/17 02:18:50;;;;;;;0.95;0.95;;;;;;;20.85;77.24;97302.25;5064525;28;20048;-69
2023/07/17 02:21:17;;;;;;;0.80;0.80;;;;;;;20.67;75.33;97276.47;5064092;28;20048;-70
2023/07/17 02:23:44;;;;;;;0.90;0.90;;;;;;;20.73;75.85;97298.06;5062792;28;20079;-68
2023/07/17 02:26:11;;;;;;;0.80;0.80;;;;;;;20.83;75.53;97290.63;5064171;28;20075;-70
2023/07/17 02:28:38;;;;;;;0.90;0.90;;;;;;;20.69;74.93;97262.75;5064061;28;20052;-69
2023/07/17 02:31:05;;;;;;;0.80;0.80;;;;;;;20.61;75.10;97261.28;5064274;28;20138;-69
2023/07/17 02:33:32;;;;;;;1.00;1.00;;;;;;;20.49;74.96;97247.84;5064232;28;20462;-69
2023/07/17 02:35:58;;;;;;;0.90;0.90;;;;;;;20.83;74.63;97301.91;5063058;28;20049;-70
2023/07/17 02:38:25;;;;;;;0.90;0.90;;;;;;;20.69;75.45;97296.53;5064300;28;20049;-70
2023/07/17 02:40:52;;;;;;;0.80;0.80;;;;;;;20.37;75.94;97265.34;5064048;28;20803;-71
2023/07/17 02:43:19;;;;;;;0.90;0.90;;;;;;;20.43;75.46;97272.06;5057772;28;20064;-70
2023/07/17 02:45:46;;;;;;;0.90;0.90;;;;;;;20.08;74.94;97199.50;5044006;28;20542;-69
2023/07/17 02:48:12;;;;;;;0.90;0.90;;;;;;;20.41;75.04;97257.63;5042704;28;20170;-71
2023/07/17 02:50:39;;;;;;;0.90;0.90;;;;;;;20.62;74.94;97297.47;5042243;28;20049;-71
2023/07/17 02:53:06;;;;;;;0.90;0.90;;;;;;;20.51;75.59;97296.06;5044045;28;20111;-70
2023/07/17 02:55:32;;;;;;;0.80;0.80;;;;;;;20.39;75.11;97271.34;5043501;28;20049;-70
2023/07/17 02:57:59;;;;;;;1.00;1.00;;;;;;;20.30;75.32;97257.81;5042409;28;20515;-69
2023/07/17 03:00:26;;;;;;;0.90;0.90;;;;;;;20.49;74.95;97287.22;5042306;28;20191;-70
2023/07/17 03:02:52;;;;;;;0.90;0.90;;;;;;;20.58;74.70;97290.31;5042582;28;20790;-70
2023/07/17 03:05:19;;;;;;;0.90;0.90;;;;;;;20.54;75.01;97292.38;5043536;28;20102;-70
2023/07/17 03:07:50;;;;;;;0.90;0.90;;;;;;;20.49;75.18;97281.59;5043720;28;20114;-69
2023/07/17 03:10:17;;;;;;;0.80;0.80;;;;;;;20.32;75.31;97261.03;5043595;28;20080;-70
2023/07/17 03:12:44;;;;;;;0.90;0.90;;;;;;;20.30;75.15;97246.56;5044822;28;20060;-70
2023/07/17 03:15:11;;;;;;;0.90;0.90;;;;;;;20.26;74.99;97245.84;5047776;28;20056;-70
2023/07/17 03:17:38;;;;;;;0.80;0.80;;;;;;;20.56;74.78;97293.56;5046879;28;20419;-69
2023/07/17 03:20:08;;;;;;;0.80;0.80;;;;;;;20.54;75.15;97296.00;5046317;28;20148;-69
2023/07/17 03:22:36;;;;;;;1.00;1.00;;;;;;;20.44;74.60;97262.41;5047705;28;20495;-72
2023/07/17 03:25:05;;;;;;;0.90;0.90;;;;;;;20.43;74.75;97255.19;5046646;28;20056;-73
2023/07/17 03:27:32;;;;;;;0.90;0.90;;;;;;;19.19;73.94;97042.84;5046369;28;20056;-71
2023/07/17 03:29:59;;;;;;;0.90;0.90;;;;;;;20.20;73.97;97201.75;5047462;28;20454;-70
2023/07/17 03:32:26;;;;;;;0.95;0.95;;;;;;;20.45;73.98;97230.22;5046235;28;20506;-70
2023/07/17 03:34:52;;;;;;;0.95;0.95;;;;;;;20.57;73.95;97260.56;5047493;28;20088;-71
2023/07/17 03:37:19;;;;;;;0.80;0.80;;;;;;;20.65;73.99;97256.38;5046148;28;20503;-70
2023/07/17 03:39:46;;;;;;;0.90;0.90;;;;;;;21.01;73.45;97291.09;5047865;28;20077;-71
2023/07/17 03:42:14;;;;;;;1.00;1.00;;;;;;;20.95;72.84;97281.53;5047860;28;20080;-69
2023/07/17 03:44:41;;;;;;;1.00;1.00;;;;;;;21.05;72.48;97280.56;5062706;28;20060;-70
2023/07/17 03:47:08;;;;;;;0.90;0.90;;;;;;;20.50;72.78;97210.03;5067493;28;20519;-70
2023/07/17 03:49:35;;;;;;;0.95;0.95;;;;;;;21.29;71.62;97290.53;5067546;28;20049;-71
2023/07/17 03:52:02;;;;;;;1.00;1.00;;;;;;;21.22;70.52;97239.94;5065578;28;20052;-70
2023/07/17 03:54:38;;;;;;;0.85;0.85;;;;;;;21.28;70.43;97263.56;4049126;28;10020778;-71
2023/07/17 03:57:04;;;;;;;1.00;1.00;;;;;;;21.54;69.92;97302.06;3043176;28;10002160;-71
2023/07/17 03:59:47;;;;;;;0.90;0.90;;;;;;;21.47;70.55;97290.94;5058615;28;20056;-71
2023/07/17 04:02:14;;;;;;;0.90;0.90;;;;;;;21.40;69.76;97262.91;5047732;28;20045;-70
2023/07/17 04:04:40;;;;;;;1.00;1.00;;;;;;;21.64;69.85;97301.03;5046606;28;20066;-71
2023/07/17 04:07:07;;;;;;;0.93;0.93;;;;;;;21.61;69.05;97290.63;5045204;28;20057;-70
2023/07/17 04:09:33;;;;;;;0.98;0.98;;;;;;;21.41;69.88;97263.69;5045162;28;20052;-71
2023/07/17 04:12:03;;;;;;;1.00;1.00;;;;;;;21.53;69.89;97269.44;5046847;28;20127;-70
2023/07/17 04:14:31;;;;;;;1.00;1.00;;;;;;;21.72;69.68;97290.41;5045283;28;20049;-70
2023/07/17 04:16:58;;;;;;;0.90;0.90;;;;;;;21.87;69.29;97292.47;5047009;28;20063;-70
2023/07/17 04:19:26;;;;;;;0.90;0.90;;;;;;;21.95;69.31;97276.97;5047132;28;20154;-71
2023/07/17 04:21:53;;;;;;;1.10;1.10;;;;;;;21.57;69.17;97194.06;5061900;28;20065;-71
2023/07/17 04:24:23;;;;;;;1.10;1.10;;;;;;;22.14;68.82;97273.28;5045096;28;20049;-72
2023/07/17 04:26:50;;;;;;;1.00;1.00;;;;;;;22.48;67.99;97282.06;5046952;28;20131;-71
2023/07/17 04:29:17;;;;;;;1.00;1.00;;;;;;;22.15;67.57;97212.78;5061648;28;20454;-71
2023/07/17 04:31:43;;;;;;;1.10;1.10;;;;;;;22.45;68.20;97271.66;5046719;28;20475;-71
2023/07/17 04:34:10;;;;;;;1.10;1.10;;;;;;;22.53;67.27;97237.63;5046627;28;20048;-72
2023/07/17 04:36:37;;;;;;;1.10;1.10;;;;;;;22.64;66.07;97221.16;5060944;28;20051;-71
2023/07/17 04:39:04;;;;;;;1.00;1.00;;;;;;;23.23;65.76;97292.16;5061027;28;20130;-70
2023/07/17 04:41:31;;;;;;;1.00;1.00;;;;;;;23.10;65.50;97277.19;5046466;28;20240;-72
2023/07/17 04:43:58;;;;;;;1.10;1.10;;;;;;;23.24;65.07;97282.44;5049116;28;20151;-69
2023/07/17 04:46:25;;;;;;;0.90;0.90;;;;;;;23.47;64.72;97307.66;5045883;28;20048;-72
2023/07/17 04:48:52;;;;;;;1.02;1.02;;;;;;;23.30;63.82;97269.38;5045675;28;20148;-73
2023/07/17 04:51:20;;;;;;;0.98;0.98;;;;;;;23.62;63.72;97308.78;5045483;28;20053;-71
2023/07/17 04:53:47;;;;;;;1.10;1.10;;;;;;;23.77;62.88;97309.97;5045258;28;20085;-73
2023/07/17 04:56:14;;;;;;;1.10;1.10;;;;;;;23.71;63.04;97308.94;5044301;28;20053;-71
2023/07/17 04:58:40;;;;;;;1.10;1.10;;;;;;;23.08;63.35;97223.16;5046140;28;20081;-71
2023/07/17 05:01:07;;;;;;;0.93;0.93;;;;;;;23.55;63.50;97303.38;5045571;28;20056;-71
2023/07/17 05:03:36;;;;;;;1.00;1.00;;;;;;;23.48;63.55;97280.94;5045896;28;20057;-70
2023/07/17 05:06:03;;;;;;;0.95;0.95;;;;;;;23.77;62.78;97312.78;5044532;28;20310;-70
2023/07/17 05:08:30;;;;;;;1.10;1.10;;;;;;;23.82;62.09;97284.72;5044452;28;20052;-71
2023/07/17 05:10:59;;;;;;;0.90;0.90;;;;;;;24.15;61.32;97282.50;5046021;28;20120;-71
2023/07/17 05:13:26;;;;;;;1.10;1.10;;;;;;;24.08;60.38;97251.56;5043990;28;20048;-72
2023/07/17 05:15:54;;;;;;;1.00;1.00;;;;;;;24.60;59.67;97297.16;5044109;28;20060;-71
2023/07/17 05:18:21;;;;;;;1.00;1.00;;;;;;;24.82;58.29;97283.84;5045648;28;20457;-71
2023/07/17 05:20:50;;;;;;;1.10;1.10;;;;;;;24.94;57.52;97279.41;5045335;28;20049;-70
2023/07/17 05:23:17;;;;;;;1.10;1.10;;;;;;;25.29;56.46;97295.88;5045403;28;20041;-71
2023/07/17 05:25:53;;;;;;;1.10;1.10;;;;;;;25.25;57.04;97305.78;5045644;28;20077;-72
2023/07/17 05:28:20;;;;;;;1.10;1.10;;;;;;;24.81;58.28;97265.28;5043907;28;20052;-71
2023/07/17 05:30:53;;;;;;;1.30;1.30;;;;;;;24.94;59.48;97280.16;5048649;28;20055;-70
2023/07/17 05:33:21;;;;;;;1.00;1.00;;;;;;;25.04;58.38;97249.84;5063695;28;20060;-63
2023/07/17 05:35:47;;;;;;;1.10;1.10;;;;;;;24.85;57.62;97231.13;5062635;28;20479;-71
2023/07/17 05:38:14;;;;;;;1.30;1.30;;;;;;;25.39;57.34;97276.16;5080739;28;20059;-70
2023/07/17 05:40:41;;;;;;;1.20;1.20;;;;;;;25.69;57.14;97301.72;5065553;28;20343;-63
2023/07/17 05:43:08;;;;;;;1.17;1.17;;;;;;;25.75;55.97;97260.09;5063028;28;20539;-70
2023/07/17 05:45:35;;;;;;;1.10;1.10;;;;;;;25.93;54.95;97262.25;5064194;28;20048;-62
2023/07/17 05:48:02;;;;;;;1.30;1.30;;;;;;;26.02;54.87;97257.44;5064362;28;20058;-63
2023/07/17 05:50:29;;;;;;;1.40;1.40;;;;;;;26.22;55.19;97255.00;5064403;28;20670;-63
2023/07/17 05:52:57;;;;;;;1.30;1.30;;;;;;;26.28;53.69;97221.06;5063281;28;20067;-64
2023/07/17 05:55:24;;;;;;;1.48;1.48;;;;;;;26.59;54.10;97267.22;5064422;28;20066;-68
2023/07/17 05:57:51;;;;;;;1.30;1.30;;;;;;;26.98;53.17;97297.66;5062925;28;20109;-67
2023/07/17 06:00:19;;;;;;;1.33;1.33;;;;;;;26.75;53.49;97264.13;5064067;28;20127;-64
2023/07/17 06:02:45;;;;;;;1.45;1.45;;;;;;;26.54;54.50;97242.28;5063264;28;20117;-67
2023/07/17 06:05:12;;;;;;;1.50;1.50;;;;;;;26.96;53.67;97262.41;5062648;28;20053;-69
2023/07/17 06:07:39;;;;;;;1.58;1.58;;;;;;;27.35;53.59;97289.91;5063087;28;20053;-68
2023/07/17 06:10:07;;;;;;;1.30;1.30;;;;;;;27.37;54.11;97291.03;5062501;28;20060;-65
2023/07/17 06:12:34;;;;;;;1.60;1.60;;;;;;;26.71;54.07;97200.94;5062972;28;20071;-68
2023/07/17 06:15:01;;;;;;;1.50;1.50;;;;;;;27.02;53.09;97203.59;5049896;28;20076;-65
2023/07/17 06:17:28;;;;;;;1.38;1.38;;;;;;;27.56;52.08;97255.56;5062404;28;20048;-63
2023/07/17 06:19:54;;;;;;;1.67;1.67;;;;;;;26.96;52.32;97200.63;5062955;28;20545;-66
2023/07/17 06:22:21;;;;;;;1.45;1.45;;;;;;;27.52;51.91;97289.09;5063868;28;20048;-64
2023/07/17 06:24:49;;;;;;;1.30;1.30;;;;;;;27.09;51.24;97181.34;5059621;28;20048;-69
2023/07/17 06:27:16;;;;;;;1.45;1.45;;;;;;;26.31;51.71;97069.56;5063518;28;20063;-69
2023/07/17 06:29:42;;;;;;;1.70;1.70;;;;;;;26.90;50.58;97105.84;5061461;28;20289;-65
2023/07/17 06:32:09;;;;;;;1.50;1.50;;;;;;;28.19;50.50;97237.50;5061866;28;20127;-65
2023/07/17 06:34:37;;;;;;;1.42;1.42;;;;;;;28.39;48.96;97288.22;5062015;28;20156;-62
2023/07/17 06:37:05;;;;;;;1.70;1.70;;;;;;;28.17;49.66;97259.19;5061435;28;20056;-65
2023/07/17 06:39:32;;;;;;;1.63;1.63;;;;;;;28.52;49.32;97277.41;5062487;28;20052;-64
2023/07/17 06:41:59;;;;;;;1.70;1.70;;;;;;;28.27;48.70;97235.06;5063397;28;20109;-63
2023/07/17 06:44:27;;;;;;;1.63;1.63;;;;;;;28.82;48.12;97270.56;5059183;28;20064;-69
2023/07/17 06:46:54;;;;;;;1.80;1.80;;;;;;;29.19;47.24;97271.88;5059944;28;20130;-64
2023/07/17 06:49:20;;;;;;;1.60;1.60;;;;;;;29.16;47.42;97232.91;5060067;28;20048;-69
2023/07/17 06:51:49;;;;;;;1.70;1.70;;;;;;;28.98;46.92;97164.56;5055051;28;20049;-69
2023/07/17 06:54:16;;;;;;;1.90;1.90;;;;;;;29.55;46.37;97214.44;5050947;28;20041;-70
2023/07/17 06:56:43;;;;;;;1.80;1.80;;;;;;;29.70;46.14;97234.47;5061270;28;20059;-68
2023/07/17 06:59:09;;;;;;;1.80;1.80;;;;;;;29.55;45.89;97178.13;5062515;28;20048;-66
2023/07/17 07:01:36;;;;;;;1.60;1.60;;;;;;;30.26;45.75;97248.41;5060074;28;20508;-69
2023/07/17 07:04:03;;;;;;;1.58;1.58;;;;;;;30.39;45.85;97249.66;5061163;28;20048;-63
2023/07/17 07:06:30;;;;;;;2.00;2.00;;;;;;;30.38;45.45;97245.22;5061562;28;20049;-62
2023/07/17 07:08:57;;;;;;;1.83;1.83;;;;;;;30.10;46.22;97189.66;5060011;28;20045;-67
2023/07/17 07:11:23;;;;;;;1.75;1.75;;;;;;;30.14;46.18;97178.84;5061630;28;20430;-63
2023/07/17 07:13:50;;;;;;;1.80;1.80;;;;;;;30.17;46.39;97229.28;5061427;28;20040;-64
2023/07/17 07:16:17;;;;;;;1.85;1.85;;;;;;;29.50;46.27;97115.19;5061013;28;20044;-70
2023/07/17 07:18:44;;;;;;;1.80;1.80;;;;;;;29.80;46.06;97155.97;5061890;28;20060;-64
2023/07/17 07:21:11;;;;;;;2.22;2.22;;;;;;;30.00;45.78;97159.66;5061600;28;20071;-67
2023/07/17 07:23:37;;;;;;;2.00;2.00;;;;;;;30.63;45.56;97241.69;5061884;28;20049;-67
2023/07/17 07:26:04;;;;;;;1.83;1.83;;;;;;;30.63;45.71;97218.81;5062429;28;20044;-67
2023/07/17 07:28:31;;;;;;;1.83;1.83;;;;;;;30.80;44.52;97216.19;5058728;28;20431;-62
2023/07/17 07:30:57;;;;;;;1.80;1.80;;;;;;;30.97;44.21;97225.00;5061846;28;20434;-69
2023/07/17 07:33:24;;;;;;;1.80;1.80;;;;;;;30.62;44.37;97160.00;5062156;28;20045;-62
2023/07/17 07:35:51;;;;;;;2.08;2.08;;;;;;;31.40;43.64;97229.66;5062244;28;20045;-64
2023/07/17 07:38:18;;;;;;;2.20;2.20;;;;;;;31.18;43.25;97189.31;5059658;28;20058;-70
2023/07/17 07:40:44;;;;;;;2.00;2.00;;;;;;;31.29;44.68;97223.78;5062182;28;20052;-71
2023/07/17 07:43:11;;;;;;;1.83;1.83;;;;;;;30.88;43.30;97149.44;5062034;28;20476;-66
2023/07/17 07:45:38;;;;;;;1.80;1.80;;;;;;;31.37;43.97;97207.75;5054055;28;20799;-71
2023/07/17 07:48:05;;;;;;;1.63;1.63;;;;;;;31.54;43.12;97223.03;5061160;28;20084;-63
2023/07/17 07:50:32;;;;;;;1.80;1.80;;;;;;;30.78;43.44;97093.66;5057509;28;20523;-70
2023/07/17 07:53:01;;;;;;;1.95;1.95;;;;;;;31.50;42.80;97170.94;5060526;28;20338;-70
2023/07/17 07:55:27;;;;;;;2.10;2.10;;;;;;;31.02;43.59;97221.38;5067601;28;20467;-65
2023/07/17 07:57:54;;;;;;;1.90;1.90;;;;;;;31.19;44.11;97219.53;5064965;28;20246;-64
2023/07/17 08:00:21;;;;;;;1.67;1.67;;;;;;;30.16;44.72;97152.59;5055788;28;20044;-67
2023/07/17 08:02:49;;;;;;;1.85;1.85;;;;;;;30.21;45.07;97203.38;5063735;28;20535;-70
2023/07/17 08:05:16;;;;;;;1.50;1.50;;;;;;;29.85;46.31;97198.88;5065689;28;20151;-70
2023/07/17 08:07:42;;;;;;;1.75;1.75;;;;;;;30.34;45.54;97218.09;5064584;28;20059;-72
2023/07/17 08:10:09;;;;;;;1.70;1.70;;;;;;;30.64;44.61;97197.50;5060362;28;20574;-74
2023/07/17 08:12:36;;;;;;;1.73;1.73;;;;;;;31.09;44.25;97220.97;5063768;28;20052;-74
2023/07/17 08:15:04;;;;;;;1.73;1.73;;;;;;;30.98;43.44;97177.91;5064376;28;20045;-71
2023/07/17 08:17:30;;;;;;;1.95;1.95;;;;;;;31.45;43.27;97174.50;5064018;28;20067;-76
2023/07/17 08:19:57;;;;;;;1.85;1.85;;;;;;;32.02;42.93;97203.97;5053923;28;20055;-65
2023/07/17 08:22:24;;;;;;;1.92;1.92;;;;;;;31.76;43.30;97188.84;5046264;28;20056;-70
2023/07/17 08:24:51;;;;;;;1.88;1.88;;;;;;;31.38;43.62;97117.72;5063132;28;20511;-70
2023/07/17 08:27:17;;;;;;;1.80;1.80;;;;;;;32.34;42.54;97205.50;5066549;28;20055;-71
2023/07/17 08:29:44;;;;;;;1.75;1.75;;;;;;;32.14;43.01;97111.00;5066200;28;20483;-69
2023/07/17 08:32:11;;;;;;;2.17;2.17;;;;;;;32.75;41.65;97172.38;5066048;28;20047;-65
2023/07/17 08:34:38;;;;;;;1.80;1.80;;;;;;;33.23;40.79;97201.78;5066571;28;20084;-70
2023/07/17 08:37:04;;;;;;;1.83;1.83;;;;;;;32.74;40.47;97090.41;5064462;28;20055;-70
2023/07/17 08:39:31;;;;;;;2.13;2.13;;;;;;;32.67;40.16;97147.53;5066414;28;20056;-69
2023/07/17 08:41:58;;;;;;;1.60;1.60;;;;;;;32.06;41.51;97201.63;5066033;28;20051;-67
2023/07/17 08:44:27;;;;;;;1.95;1.95;;;;;;;31.83;42.26;97199.88;5066059;28;20135;-70
2023/07/17 08:46:55;;;;;;;1.67;1.67;;;;;;;32.49;41.27;97186.06;5064007;28;20058;-65
2023/07/17 08:49:24;;;;;;;2.03;2.03;;;;;;;32.38;42.27;97120.03;5064658;28;20072;-65
2023/07/17 08:51:52;;;;;;;1.92;1.92;;;;;;;33.20;41.57;97174.09;5052271;28;20503;-68
2023/07/17 08:54:18;;;;;;;2.15;2.15;;;;;;;33.53;41.19;97185.69;5066527;28;20484;-63
2023/07/17 08:57:01;;;;;;;1.77;1.77;;;;;;;33.71;41.28;97190.94;5063851;28;20469;-64
2023/07/17 08:59:33;;;;;;;1.98;1.98;;;;;;;33.72;40.47;97163.75;5065216;28;20052;-69
2023/07/17 09:02:03;;;;;;;1.70;1.70;;;;;;;34.00;41.00;97183.13;5064674;28;20470;-67
2023/07/17 09:04:31;;;;;;;1.80;1.80;;;;;;;33.58;40.55;97118.03;5052418;28;20399;-70
2023/07/17 09:06:57;;;;;;;1.90;1.90;;;;;;;34.31;40.66;97182.81;5062778;28;20044;-64
2023/07/17 09:09:24;;;;;;;1.90;1.90;;;;;;;33.43;42.10;97075.19;5063856;28;20166;-68
2023/07/17 09:12:11;;;;;;;2.00;2.00;;;;;;;33.70;40.75;97097.38;5062935;28;20499;-69
2023/07/17 09:14:39;;;;;;;1.67;1.67;;;;;;;34.54;40.36;97181.50;5059912;28;20049;-67
2023/07/17 09:17:09;;;;;;;2.28;2.28;;;;;;;34.77;40.50;97180.09;5058106;28;20113;-66
2023/07/17 09:19:37;;;;;;;1.75;1.75;;;;;;;34.61;39.57;97152.16;5063544;28;20052;-64
2023/07/17 09:22:06;;;;;;;2.08;2.08;;;;;;;34.35;39.86;97117.94;5062478;28;20114;-71
2023/07/17 09:24:34;;;;;;;1.70;1.70;;;;;;;34.46;39.56;97151.69;5062971;28;20052;-70
2023/07/17 09:27:05;;;;;;;2.00;2.00;;;;;;;34.97;39.05;97162.50;5063529;28;20064;-63
2023/07/17 09:29:32;;;;;;;2.15;2.15;;;;;;;34.55;39.43;97142.75;5064537;28;20590;-68
2023/07/17 09:32:19;;;;;;;1.80;1.80;;;;;;;34.14;40.82;97055.50;5060662;28;20562;-72
2023/07/17 09:34:52;;;;;;;1.73;1.73;;;;;;;34.52;39.28;97117.94;5072938;28;20067;-71
2023/07/17 09:37:18;;;;;;;2.10;2.10;;;;;;;34.17;39.56;97060.22;5067942;28;20044;-67
2023/07/17 09:39:50;;;;;;;2.03;2.03;;;;;;;34.84;39.89;97137.13;5062861;28;20072;-70
2023/07/17 09:42:23;;;;;;;1.90;1.90;;;;;;;35.34;39.85;97154.19;5063678;28;20090;-68
2023/07/17 09:44:53;;;;;;;;;;;;;;;35.49;39.57;97156.75;5069025;28;20523;-69
2023/07/17 09:47:21;;;;;;;1.80;1.80;;;;;;;35.47;40.61;97154.41;5062813;28;19938;-70
2023/07/17 09:49:48;;;;;;;1.88;1.88;;;;;;;34.77;39.68;97073.56;5058275;28;20048;-63
2023/07/17 09:52:15;;;;;;;2.10;2.10;;;;;;;34.87;40.12;97083.47;5062315;28;20951;-70
2023/07/17 09:54:44;;;;;;;2.00;2.00;;;;;;;34.20;39.13;96942.00;5061336;28;20079;-72
2023/07/17 09:57:18;;;;;;;1.95;1.95;;;;;;;35.74;38.88;97138.97;5061377;28;20598;-67
2023/07/17 09:59:48;;;;;;;1.85;1.85;;;;;;;34.98;39.28;96999.94;5062157;28;20052;-68
2023/07/17 10:02:18;;;;;;;2.15;2.15;;;;;;;35.72;37.99;97107.03;5062447;28;20060;-73
2023/07/17 10:04:50;;;;;;;1.92;1.92;;;;;;;36.17;37.71;97128.38;5064086;28;20052;-69
2023/07/17 10:07:19;;;;;;;2.00;2.00;;;;;;;36.40;37.68;97147.06;5063882;28;20048;-63
2023/07/17 10:09:49;;;;;;;1.90;1.90;;;;;;;36.53;38.10;97141.38;5062323;28;20071;-69
2023/07/17 10:12:17;;;;;;;2.05;2.05;;;;;;;36.20;38.74;97144.59;5064430;28;20486;-63
2023/07/17 10:14:46;;;;;;;1.98;1.98;;;;;;;36.44;38.52;97138.88;5064504;28;20060;-62
2023/07/17 10:17:30;;;;;;;2.05;2.05;;;;;;;36.55;37.54;97129.28;5064284;28;20071;-63
2023/07/17 10:20:01;;;;;;;2.25;2.25;;;;;;;36.13;37.53;97116.34;5063762;28;20055;-63
2023/07/17 10:22:33;;;;;;;2.00;2.00;;;;;;;35.17;38.25;97060.53;5064034;28;20059;-71
2023/07/17 10:25:09;;;;;;;1.92;1.92;;;;;;;35.94;38.60;97126.25;5063905;28;20451;-70
2023/07/17 10:27:38;;;;;;;1.65;1.65;;;;;;;35.44;37.97;97060.34;5063531;28;20055;-65
2023/07/17 10:30:23;;;;;;;1.92;1.92;;;;;;;35.81;37.91;97108.75;5064164;28;20072;-69
2023/07/17 10:33:07;;;;;;;2.35;2.35;;;;;;;35.70;38.03;97097.31;5063707;28;20568;-70
2023/07/17 10:36:00;;;;;;;2.00;2.00;;;;;;;34.18;38.26;96932.31;5063551;28;20527;-64
2023/07/17 10:38:34;;;;;;;2.03;2.03;;;;;;;35.52;37.33;97118.97;5062583;28;20513;-70
2023/07/17 10:41:13;;;;;;;2.10;2.10;;;;;;;35.55;37.69;97120.78;4811312;28;5000944;-65
2023/07/17 10:43:51;;;;;;;1.85;1.85;;;;;;;35.83;37.31;97095.41;5063249;28;20056;-70
2023/07/17 10:46:29;;;;;;;1.95;1.95;;;;;;;35.99;36.55;97059.84;5043977;28;20098;-70
2023/07/17 10:49:06;;;;;;;1.70;1.70;;;;;;;36.29;36.44;97108.84;5043781;28;20059;-68
2023/07/17 10:51:33;;;;;;;1.90;1.90;;;;;;;35.67;37.80;97104.97;5043537;28;20049;-69
2023/07/17 10:54:00;;;;;;;1.80;1.80;;;;;;;36.08;36.59;97105.66;5049071;28;20536;-63
2023/07/17 10:56:29;;;;;;;2.08;2.08;;;;;;;33.84;37.51;96928.03;5062155;28;20143;-65
2023/07/17 10:58:56;;;;;;;1.98;1.98;;;;;;;35.17;36.63;97014.44;5061924;28;20044;-69
2023/07/17 11:01:23;;;;;;;1.90;1.90;;;;;;;35.69;36.94;97043.88;5061342;28;20498;-70
2023/07/17 11:03:50;;;;;;;1.98;1.98;;;;;;;34.50;37.72;96979.53;5062718;28;20131;-65
2023/07/17 11:06:18;;;;;;;2.10;2.10;;;;;;;35.79;37.44;97048.75;5051325;28;20072;-66
2023/07/17 11:08:49;;;;;;;2.17;2.17;;;;;;;36.71;36.01;97087.13;5054887;28;20075;-70
2023/07/17 11:11:16;;;;;;;2.00;2.00;;;;;;;36.83;35.41;97042.34;5054832;28;20051;-69
2023/07/17 11:13:48;;;;;;;2.00;2.00;;;;;;;37.24;34.33;97060.13;5029337;28;20072;-70
2023/07/17 11:16:16;;;;;;;2.38;2.33;;;;;;;37.76;33.75;97037.19;5004087;28;20058;-72
2023/07/17 11:18:45;;;;;;;2.20;2.20;;;;;;;38.60;32.63;97080.59;5010582;28;20423;-63
2023/07/17 11:21:13;;;;;;;2.50;2.40;;;;;;;36.70;33.34;97005.47;5014807;28;20048;-66
2023/07/17 11:23:49;;;;;;;1.75;1.75;;;;;;;36.32;35.49;97019.09;5021509;28;20080;-71
2023/07/17 11:26:19;;;;;;;2.28;2.28;;;;;;;37.60;33.77;97081.63;5023401;28;20062;-62
2023/07/17 11:28:49;;;;;;;2.08;2.08;;;;;;;38.06;33.40;97078.19;5022896;28;20045;-73
2023/07/17 11:31:27;;;;;;;2.15;2.15;;;;;;;38.05;32.37;97076.63;5043427;28;20073;-71
2023/07/17 11:33:59;;;;;;;2.17;2.17;;;;;;;37.21;33.93;97072.78;5016214;28;20283;-62
2023/07/17 11:36:27;;;;;;;2.55;2.45;;;;;;;35.84;35.89;97062.34;5041576;28;20104;-66
2023/07/17 11:39:00;;;;;;;2.15;2.15;;;;;;;35.48;36.64;97029.13;5014813;28;20049;-71